Central, Texas
Current Conditions -  °F | °C
As of 10:15 PM on Friday 19 Dec 2014 (Local Time) from KOCH Reporting Station
Overcast Overcast  
Wind Chill: 46°   Ceiling: 600
Heat Index: 46°   Visibility: 8mi
Dew Point: 45°   Wind: 3mph
Humidity: 93%   Direction: 20°NNE
Pressure: 30.18"   Gusts: NA
Location:  31.426°N, 94.8655°W
Report Text: KOCH 200415Z AUTO 02003KT 8SM OVC006 08/07 A3018 RMK AO1
Loading
Personal Weather Stations






























Interactive Weather Map New forecast layout! Learn more

10-Day Weather Forecast

Advertisements
Track Severe Weather on mobile